sensor_id;sensor_type;location;lat;lon;timestamp;P1;durP1;ratioP1;P2;durP2;ratioP2
78916;SDS011;68315;48.608;11.436;2023-12-29T00:01:17;3.90;;;2.50;;
78916;SDS011;68315;48.608;11.436;2023-12-29T00:03:43;4.47;;;2.30;;
78916;SDS011;68315;48.608;11.436;2023-12-29T00:06:11;2.20;;;2.00;;
78916;SDS011;68315;48.608;11.436;2023-12-29T00:08:36;4.47;;;2.42;;
78916;SDS011;68315;48.608;11.436;2023-12-29T00:11:02;2.67;;;2.10;;
78916;SDS011;68315;48.608;11.436;2023-12-29T00:13:27;3.72;;;2.40;;
78916;SDS011;68315;48.608;11.436;2023-12-29T00:15:52;2.30;;;2.10;;
78916;SDS011;68315;48.608;11.436;2023-12-29T00:18:18;2.40;;;2.10;;
78916;SDS011;68315;48.608;11.436;2023-12-29T00:20:44;2.90;;;2.53;;
78916;SDS011;68315;48.608;11.436;2023-12-29T00:23:09;3.08;;;2.22;;
78916;SDS011;68315;48.608;11.436;2023-12-29T00:25:38;3.50;;;2.63;;
78916;SDS011;68315;48.608;11.436;2023-12-29T00:28:04;3.17;;;2.63;;
78916;SDS011;68315;48.608;11.436;2023-12-29T00:30:29;3.70;;;2.50;;
78916;SDS011;68315;48.608;11.436;2023-12-29T00:32:57;4.10;;;2.80;;
78916;SDS011;68315;48.608;11.436;2023-12-29T00:35:22;3.17;;;2.60;;
78916;SDS011;68315;48.608;11.436;2023-12-29T00:37:47;4.18;;;2.90;;
78916;SDS011;68315;48.608;11.436;2023-12-29T00:40:14;6.07;;;3.67;;
78916;SDS011;68315;48.608;11.436;2023-12-29T00:42:40;3.67;;;2.90;;
78916;SDS011;68315;48.608;11.436;2023-12-29T00:45:05;4.28;;;2.60;;
78916;SDS011;68315;48.608;11.436;2023-12-29T00:47:32;3.00;;;2.60;;
78916;SDS011;68315;48.608;11.436;2023-12-29T00:49:57;3.20;;;2.85;;
78916;SDS011;68315;48.608;11.436;2023-12-29T00:52:22;4.65;;;2.90;;
78916;SDS011;68315;48.608;11.436;2023-12-29T00:54:47;3.05;;;2.75;;
78916;SDS011;68315;48.608;11.436;2023-12-29T00:57:13;3.33;;;2.65;;
78916;SDS011;68315;48.608;11.436;2023-12-29T00:59:38;4.10;;;2.92;;
78916;SDS011;68315;48.608;11.436;2023-12-29T01:02:06;3.08;;;2.78;;
78916;SDS011;68315;48.608;11.436;2023-12-29T01:04:32;4.35;;;2.55;;
78916;SDS011;68315;48.608;11.436;2023-12-29T01:06:58;2.78;;;2.53;;
78916;SDS011;68315;48.608;11.436;2023-12-29T01:09:23;4.35;;;2.85;;
78916;SDS011;68315;48.608;11.436;2023-12-29T01:11:48;3.38;;;2.67;;
78916;SDS011;68315;48.608;11.436;2023-12-29T01:14:14;3.90;;;2.72;;
78916;SDS011;68315;48.608;11.436;2023-12-29T01:16:39;3.03;;;2.30;;
78916;SDS011;68315;48.608;11.436;2023-12-29T01:19:06;3.58;;;2.67;;
78916;SDS011;68315;48.608;11.436;2023-12-29T01:21:31;2.70;;;2.40;;
78916;SDS011;68315;48.608;11.436;2023-12-29T01:23:59;3.53;;;2.95;;
78916;SDS011;68315;48.608;11.436;2023-12-29T01:26:29;3.05;;;2.60;;
78916;SDS011;68315;48.608;11.436;2023-12-29T01:28:54;2.92;;;2.65;;
78916;SDS011;68315;48.608;11.436;2023-12-29T01:31:20;4.28;;;2.50;;
78916;SDS011;68315;48.608;11.436;2023-12-29T01:33:45;5.28;;;2.92;;
78916;SDS011;68315;48.608;11.436;2023-12-29T01:36:16;4.13;;;2.95;;
78916;SDS011;68315;48.608;11.436;2023-12-29T01:38:42;4.65;;;2.90;;
78916;SDS011;68315;48.608;11.436;2023-12-29T01:41:07;4.15;;;3.08;;
78916;SDS011;68315;48.608;11.436;2023-12-29T01:43:32;4.82;;;3.30;;
78916;SDS011;68315;48.608;11.436;2023-12-29T01:45:57;3.67;;;3.05;;
78916;SDS011;68315;48.608;11.436;2023-12-29T01:48:23;3.95;;;2.90;;
78916;SDS011;68315;48.608;11.436;2023-12-29T01:50:49;4.90;;;3.28;;
78916;SDS011;68315;48.608;11.436;2023-12-29T01:53:15;5.07;;;3.38;;
78916;SDS011;68315;48.608;11.436;2023-12-29T01:55:40;4.35;;;3.38;;
78916;SDS011;68315;48.608;11.436;2023-12-29T01:58:06;4.25;;;3.30;;
78916;SDS011;68315;48.608;11.436;2023-12-29T02:00:31;6.20;;;3.40;;
78916;SDS011;68315;48.608;11.436;2023-12-29T02:02:58;5.00;;;3.47;;
78916;SDS011;68315;48.608;11.436;2023-12-29T02:05:23;3.33;;;3.00;;
78916;SDS011;68315;48.608;11.436;2023-12-29T02:07:51;4.32;;;3.45;;
78916;SDS011;68315;48.608;11.436;2023-12-29T02:10:18;4.68;;;3.40;;
78916;SDS011;68315;48.608;11.436;2023-12-29T02:12:44;3.58;;;2.90;;
78916;SDS011;68315;48.608;11.436;2023-12-29T02:15:13;5.32;;;3.20;;
78916;SDS011;68315;48.608;11.436;2023-12-29T02:17:44;4.68;;;3.22;;
78916;SDS011;68315;48.608;11.436;2023-12-29T02:20:12;5.40;;;3.63;;
78916;SDS011;68315;48.608;11.436;2023-12-29T02:22:38;4.07;;;3.45;;
78916;SDS011;68315;48.608;11.436;2023-12-29T02:25:04;4.13;;;3.15;;
78916;SDS011;68315;48.608;11.436;2023-12-29T02:29:58;4.07;;;3.22;;
78916;SDS011;68315;48.608;11.436;2023-12-29T02:32:33;5.43;;;3.80;;
78916;SDS011;68315;48.608;11.436;2023-12-29T02:35:00;4.80;;;3.67;;
78916;SDS011;68315;48.608;11.436;2023-12-29T02:37:27;4.57;;;3.40;;
78916;SDS011;68315;48.608;11.436;2023-12-29T02:39:54;3.78;;;3.40;;
78916;SDS011;68315;48.608;11.436;2023-12-29T02:42:21;4.50;;;3.67;;
78916;SDS011;68315;48.608;11.436;2023-12-29T02:44:46;3.85;;;3.42;;
78916;SDS011;68315;48.608;11.436;2023-12-29T02:47:11;4.03;;;3.50;;
78916;SDS011;68315;48.608;11.436;2023-12-29T02:49:37;5.95;;;4.13;;
78916;SDS011;68315;48.608;11.436;2023-12-29T02:52:02;3.70;;;3.20;;
78916;SDS011;68315;48.608;11.436;2023-12-29T02:54:27;4.00;;;3.42;;
78916;SDS011;68315;48.608;11.436;2023-12-29T02:56:52;5.65;;;3.97;;
78916;SDS011;68315;48.608;11.436;2023-12-29T02:59:18;3.80;;;3.40;;
78916;SDS011;68315;48.608;11.436;2023-12-29T03:01:43;4.70;;;3.60;;
78916;SDS011;68315;48.608;11.436;2023-12-29T03:04:08;5.05;;;3.83;;
78916;SDS011;68315;48.608;11.436;2023-12-29T03:06:33;6.30;;;3.90;;
78916;SDS011;68315;48.608;11.436;2023-12-29T03:08:59;4.93;;;3.92;;
78916;SDS011;68315;48.608;11.436;2023-12-29T03:11:24;4.15;;;3.55;;
78916;SDS011;68315;48.608;11.436;2023-12-29T03:13:49;5.50;;;4.03;;
78916;SDS011;68315;48.608;11.436;2023-12-29T03:16:14;8.40;;;3.95;;
78916;SDS011;68315;48.608;11.436;2023-12-29T03:18:40;4.50;;;3.50;;
78916;SDS011;68315;48.608;11.436;2023-12-29T03:21:06;4.35;;;3.55;;
78916;SDS011;68315;48.608;11.436;2023-12-29T03:23:32;4.75;;;3.63;;
78916;SDS011;68315;48.608;11.436;2023-12-29T03:25:58;4.70;;;4.03;;
78916;SDS011;68315;48.608;11.436;2023-12-29T03:28:23;4.57;;;3.75;;
78916;SDS011;68315;48.608;11.436;2023-12-29T03:30:48;6.50;;;3.80;;
78916;SDS011;68315;48.608;11.436;2023-12-29T03:33:14;4.22;;;3.83;;
78916;SDS011;68315;48.608;11.436;2023-12-29T03:35:40;4.40;;;3.75;;
78916;SDS011;68315;48.608;11.436;2023-12-29T03:38:05;5.10;;;3.58;;
78916;SDS011;68315;48.608;11.436;2023-12-29T03:40:30;4.63;;;3.72;;
78916;SDS011;68315;48.608;11.436;2023-12-29T03:42:55;5.22;;;4.00;;
78916;SDS011;68315;48.608;11.436;2023-12-29T03:45:20;4.72;;;3.78;;
78916;SDS011;68315;48.608;11.436;2023-12-29T03:47:46;4.53;;;3.67;;
78916;SDS011;68315;48.608;11.436;2023-12-29T03:50:11;5.20;;;3.80;;
78916;SDS011;68315;48.608;11.436;2023-12-29T03:52:37;5.93;;;3.80;;
78916;SDS011;68315;48.608;11.436;2023-12-29T03:55:02;4.78;;;3.63;;
78916;SDS011;68315;48.608;11.436;2023-12-29T03:57:27;4.35;;;3.58;;
78916;SDS011;68315;48.608;11.436;2023-12-29T03:59:52;5.45;;;4.22;;
78916;SDS011;68315;48.608;11.436;2023-12-29T04:02:18;5.57;;;3.92;;
78916;SDS011;68315;48.608;11.436;2023-12-29T04:04:43;6.22;;;3.85;;
78916;SDS011;68315;48.608;11.436;2023-12-29T04:07:08;4.20;;;3.30;;
78916;SDS011;68315;48.608;11.436;2023-12-29T04:09:33;4.13;;;3.67;;
78916;SDS011;68315;48.608;11.436;2023-12-29T04:11:59;4.30;;;3.90;;
78916;SDS011;68315;48.608;11.436;2023-12-29T04:14:24;4.32;;;3.92;;
78916;SDS011;68315;48.608;11.436;2023-12-29T04:16:49;5.05;;;3.80;;
78916;SDS011;68315;48.608;11.436;2023-12-29T04:19:14;5.57;;;4.20;;
78916;SDS011;68315;48.608;11.436;2023-12-29T04:21:39;6.75;;;3.85;;
78916;SDS011;68315;48.608;11.436;2023-12-29T04:24:05;5.40;;;4.13;;
78916;SDS011;68315;48.608;11.436;2023-12-29T04:26:35;5.32;;;3.90;;
78916;SDS011;68315;48.608;11.436;2023-12-29T04:29:01;5.53;;;3.90;;
78916;SDS011;68315;48.608;11.436;2023-12-29T04:31:26;4.93;;;3.90;;
78916;SDS011;68315;48.608;11.436;2023-12-29T04:33:51;3.97;;;3.40;;
78916;SDS011;68315;48.608;11.436;2023-12-29T04:36:16;5.20;;;3.75;;
78916;SDS011;68315;48.608;11.436;2023-12-29T04:38:41;4.63;;;3.67;;
78916;SDS011;68315;48.608;11.436;2023-12-29T04:41:07;4.18;;;3.58;;
78916;SDS011;68315;48.608;11.436;2023-12-29T04:43:32;6.10;;;3.90;;
78916;SDS011;68315;48.608;11.436;2023-12-29T04:45:57;5.47;;;4.13;;
78916;SDS011;68315;48.608;11.436;2023-12-29T04:48:22;5.65;;;3.80;;
78916;SDS011;68315;48.608;11.436;2023-12-29T04:50:48;5.35;;;3.88;;
78916;SDS011;68315;48.608;11.436;2023-12-29T04:53:13;4.38;;;3.72;;
78916;SDS011;68315;48.608;11.436;2023-12-29T04:55:38;4.07;;;3.67;;
78916;SDS011;68315;48.608;11.436;2023-12-29T04:58:03;5.35;;;3.83;;
78916;SDS011;68315;48.608;11.436;2023-12-29T05:00:28;4.43;;;3.70;;
78916;SDS011;68315;48.608;11.436;2023-12-29T05:02:54;4.95;;;4.05;;
78916;SDS011;68315;48.608;11.436;2023-12-29T05:05:19;6.70;;;4.10;;
78916;SDS011;68315;48.608;11.436;2023-12-29T05:07:44;5.47;;;4.38;;
78916;SDS011;68315;48.608;11.436;2023-12-29T05:10:09;5.85;;;4.00;;
78916;SDS011;68315;48.608;11.436;2023-12-29T05:12:35;5.30;;;3.53;;
78916;SDS011;68315;48.608;11.436;2023-12-29T05:15:00;5.45;;;3.80;;
78916;SDS011;68315;48.608;11.436;2023-12-29T05:17:25;5.05;;;3.50;;
78916;SDS011;68315;48.608;11.436;2023-12-29T05:19:50;4.38;;;3.33;;
78916;SDS011;68315;48.608;11.436;2023-12-29T05:22:16;5.53;;;3.83;;
78916;SDS011;68315;48.608;11.436;2023-12-29T05:24:42;7.78;;;4.00;;
78916;SDS011;68315;48.608;11.436;2023-12-29T05:27:08;6.72;;;4.10;;
78916;SDS011;68315;48.608;11.436;2023-12-29T05:29:34;5.32;;;3.92;;
78916;SDS011;68315;48.608;11.436;2023-12-29T05:31:59;6.00;;;3.88;;
78916;SDS011;68315;48.608;11.436;2023-12-29T05:34:24;5.68;;;3.88;;
78916;SDS011;68315;48.608;11.436;2023-12-29T05:36:49;4.28;;;3.55;;
78916;SDS011;68315;48.608;11.436;2023-12-29T05:39:14;4.20;;;3.80;;
78916;SDS011;68315;48.608;11.436;2023-12-29T05:41:40;5.90;;;3.80;;
78916;SDS011;68315;48.608;11.436;2023-12-29T05:44:05;5.97;;;3.80;;
78916;SDS011;68315;48.608;11.436;2023-12-29T05:46:30;5.40;;;3.83;;
78916;SDS011;68315;48.608;11.436;2023-12-29T05:48:55;4.72;;;4.00;;
78916;SDS011;68315;48.608;11.436;2023-12-29T05:51:21;4.30;;;3.90;;
78916;SDS011;68315;48.608;11.436;2023-12-29T05:53:46;5.68;;;4.07;;
78916;SDS011;68315;48.608;11.436;2023-12-29T05:56:12;4.95;;;3.75;;
78916;SDS011;68315;48.608;11.436;2023-12-29T05:58:39;4.28;;;3.83;;
78916;SDS011;68315;48.608;11.436;2023-12-29T06:01:05;5.00;;;3.95;;
78916;SDS011;68315;48.608;11.436;2023-12-29T06:03:30;6.10;;;3.80;;
78916;SDS011;68315;48.608;11.436;2023-12-29T06:05:56;5.72;;;3.60;;
78916;SDS011;68315;48.608;11.436;2023-12-29T06:08:21;4.03;;;3.50;;
78916;SDS011;68315;48.608;11.436;2023-12-29T06:10:46;7.13;;;3.75;;
78916;SDS011;68315;48.608;11.436;2023-12-29T06:13:11;5.03;;;3.90;;
78916;SDS011;68315;48.608;11.436;2023-12-29T06:15:37;4.35;;;3.88;;
78916;SDS011;68315;48.608;11.436;2023-12-29T06:18:03;4.47;;;3.65;;
78916;SDS011;68315;48.608;11.436;2023-12-29T06:20:29;5.72;;;3.70;;
78916;SDS011;68315;48.608;11.436;2023-12-29T06:22:55;4.80;;;3.45;;
78916;SDS011;68315;48.608;11.436;2023-12-29T06:25:20;4.25;;;3.85;;
78916;SDS011;68315;48.608;11.436;2023-12-29T06:27:46;5.28;;;4.15;;
78916;SDS011;68315;48.608;11.436;2023-12-29T06:30:11;5.72;;;4.30;;
78916;SDS011;68315;48.608;11.436;2023-12-29T06:32:36;9.23;;;4.28;;
78916;SDS011;68315;48.608;11.436;2023-12-29T06:35:02;3.90;;;3.47;;
78916;SDS011;68315;48.608;11.436;2023-12-29T06:37:28;4.60;;;3.75;;
78916;SDS011;68315;48.608;11.436;2023-12-29T06:39:53;4.85;;;3.80;;
78916;SDS011;68315;48.608;11.436;2023-12-29T06:42:19;6.72;;;4.15;;
78916;SDS011;68315;48.608;11.436;2023-12-29T06:44:44;6.68;;;4.00;;
78916;SDS011;68315;48.608;11.436;2023-12-29T06:47:09;4.80;;;3.90;;
78916;SDS011;68315;48.608;11.436;2023-12-29T06:49:36;4.85;;;3.55;;
78916;SDS011;68315;48.608;11.436;2023-12-29T06:52:01;4.47;;;3.83;;
78916;SDS011;68315;48.608;11.436;2023-12-29T06:54:26;5.63;;;3.90;;
78916;SDS011;68315;48.608;11.436;2023-12-29T06:56:52;6.25;;;3.70;;
78916;SDS011;68315;48.608;11.436;2023-12-29T06:59:17;4.57;;;3.80;;
78916;SDS011;68315;48.608;11.436;2023-12-29T07:01:44;5.63;;;3.95;;
78916;SDS011;68315;48.608;11.436;2023-12-29T07:04:10;5.45;;;3.75;;
78916;SDS011;68315;48.608;11.436;2023-12-29T07:06:35;6.72;;;4.50;;
78916;SDS011;68315;48.608;11.436;2023-12-29T07:09:01;5.43;;;4.38;;
78916;SDS011;68315;48.608;11.436;2023-12-29T07:11:27;7.18;;;4.13;;
78916;SDS011;68315;48.608;11.436;2023-12-29T07:13:53;5.25;;;4.18;;
78916;SDS011;68315;48.608;11.436;2023-12-29T07:16:18;6.55;;;4.65;;
78916;SDS011;68315;48.608;11.436;2023-12-29T07:18:45;5.15;;;4.32;;
78916;SDS011;68315;48.608;11.436;2023-12-29T07:21:11;6.13;;;3.95;;
78916;SDS011;68315;48.608;11.436;2023-12-29T07:23:37;5.35;;;3.88;;
78916;SDS011;68315;48.608;11.436;2023-12-29T07:26:02;5.18;;;3.72;;
78916;SDS011;68315;48.608;11.436;2023-12-29T07:28:27;4.68;;;3.97;;
78916;SDS011;68315;48.608;11.436;2023-12-29T07:30:53;5.82;;;3.90;;
78916;SDS011;68315;48.608;11.436;2023-12-29T07:33:18;4.15;;;3.60;;
78916;SDS011;68315;48.608;11.436;2023-12-29T07:35:43;5.47;;;3.63;;
78916;SDS011;68315;48.608;11.436;2023-12-29T07:38:09;5.50;;;3.70;;
78916;SDS011;68315;48.608;11.436;2023-12-29T07:40:34;4.20;;;3.35;;
78916;SDS011;68315;48.608;11.436;2023-12-29T07:42:59;3.67;;;3.20;;
78916;SDS011;68315;48.608;11.436;2023-12-29T07:45:25;6.00;;;3.50;;
78916;SDS011;68315;48.608;11.436;2023-12-29T07:47:50;4.18;;;3.60;;
78916;SDS011;68315;48.608;11.436;2023-12-29T07:50:15;3.85;;;3.17;;
78916;SDS011;68315;48.608;11.436;2023-12-29T07:52:42;4.88;;;3.30;;
78916;SDS011;68315;48.608;11.436;2023-12-29T07:55:07;7.47;;;3.42;;
78916;SDS011;68315;48.608;11.436;2023-12-29T07:57:33;4.20;;;3.63;;
78916;SDS011;68315;48.608;11.436;2023-12-29T07:59:58;3.53;;;3.05;;
78916;SDS011;68315;48.608;11.436;2023-12-29T08:02:23;4.55;;;3.60;;
78916;SDS011;68315;48.608;11.436;2023-12-29T08:04:48;4.63;;;3.70;;
78916;SDS011;68315;48.608;11.436;2023-12-29T08:07:14;7.50;;;3.40;;
78916;SDS011;68315;48.608;11.436;2023-12-29T08:09:39;7.88;;;3.40;;
78916;SDS011;68315;48.608;11.436;2023-12-29T08:12:04;4.97;;;2.97;;
78916;SDS011;68315;48.608;11.436;2023-12-29T08:14:30;4.32;;;3.40;;
78916;SDS011;68315;48.608;11.436;2023-12-29T08:16:55;4.55;;;3.50;;
78916;SDS011;68315;48.608;11.436;2023-12-29T08:19:22;3.47;;;3.17;;
78916;SDS011;68315;48.608;11.436;2023-12-29T08:21:47;4.55;;;3.03;;
78916;SDS011;68315;48.608;11.436;2023-12-29T08:24:13;4.22;;;2.92;;
78916;SDS011;68315;48.608;11.436;2023-12-29T08:26:45;5.68;;;3.67;;
78916;SDS011;68315;48.608;11.436;2023-12-29T08:29:11;3.85;;;3.10;;
78916;SDS011;68315;48.608;11.436;2023-12-29T08:31:36;5.05;;;3.67;;
78916;SDS011;68315;48.608;11.436;2023-12-29T08:34:01;3.95;;;3.00;;
78916;SDS011;68315;48.608;11.436;2023-12-29T08:36:26;4.20;;;3.20;;
78916;SDS011;68315;48.608;11.436;2023-12-29T08:38:52;5.82;;;3.10;;
78916;SDS011;68315;48.608;11.436;2023-12-29T08:41:18;4.97;;;3.33;;
78916;SDS011;68315;48.608;11.436;2023-12-29T08:43:43;4.93;;;3.25;;
78916;SDS011;68315;48.608;11.436;2023-12-29T08:46:08;5.55;;;3.25;;
78916;SDS011;68315;48.608;11.436;2023-12-29T08:48:33;3.85;;;3.45;;
78916;SDS011;68315;48.608;11.436;2023-12-29T08:50:59;5.10;;;3.40;;
78916;SDS011;68315;48.608;11.436;2023-12-29T08:53:24;5.78;;;3.55;;
78916;SDS011;68315;48.608;11.436;2023-12-29T08:55:50;5.00;;;2.95;;
78916;SDS011;68315;48.608;11.436;2023-12-29T08:58:15;4.68;;;3.13;;
78916;SDS011;68315;48.608;11.436;2023-12-29T09:00:40;5.68;;;3.33;;
78916;SDS011;68315;48.608;11.436;2023-12-29T09:03:06;3.67;;;3.28;;
78916;SDS011;68315;48.608;11.436;2023-12-29T09:05:31;3.13;;;2.83;;
78916;SDS011;68315;48.608;11.436;2023-12-29T09:07:56;4.32;;;3.20;;
78916;SDS011;68315;48.608;11.436;2023-12-29T09:10:21;4.30;;;2.83;;
78916;SDS011;68315;48.608;11.436;2023-12-29T09:12:47;4.68;;;3.22;;
78916;SDS011;68315;48.608;11.436;2023-12-29T09:15:13;3.75;;;2.70;;
78916;SDS011;68315;48.608;11.436;2023-12-29T09:17:38;5.97;;;3.20;;
78916;SDS011;68315;48.608;11.436;2023-12-29T09:20:04;3.17;;;2.53;;
78916;SDS011;68315;48.608;11.436;2023-12-29T09:22:29;3.95;;;2.65;;
78916;SDS011;68315;48.608;11.436;2023-12-29T09:29:51;3.60;;;2.92;;
78916;SDS011;68315;48.608;11.436;2023-12-29T09:32:16;3.88;;;2.50;;
78916;SDS011;68315;48.608;11.436;2023-12-29T09:34:41;3.65;;;2.53;;
78916;SDS011;68315;48.608;11.436;2023-12-29T09:37:07;3.42;;;2.97;;
78916;SDS011;68315;48.608;11.436;2023-12-29T09:39:32;2.97;;;2.53;;
78916;SDS011;68315;48.608;11.436;2023-12-29T09:41:58;3.45;;;2.30;;
78916;SDS011;68315;48.608;11.436;2023-12-29T09:44:28;3.17;;;2.60;;
78916;SDS011;68315;48.608;11.436;2023-12-29T09:46:54;4.05;;;2.80;;
78916;SDS011;68315;48.608;11.436;2023-12-29T09:49:20;4.57;;;2.28;;
78916;SDS011;68315;48.608;11.436;2023-12-29T09:51:46;3.60;;;2.60;;
78916;SDS011;68315;48.608;11.436;2023-12-29T09:54:13;3.63;;;2.50;;
78916;SDS011;68315;48.608;11.436;2023-12-29T09:56:40;5.20;;;2.55;;
78916;SDS011;68315;48.608;11.436;2023-12-29T09:59:06;2.45;;;2.22;;
78916;SDS011;68315;48.608;11.436;2023-12-29T10:01:33;2.70;;;2.33;;
78916;SDS011;68315;48.608;11.436;2023-12-29T10:03:59;2.50;;;2.30;;
78916;SDS011;68315;48.608;11.436;2023-12-29T10:06:25;5.30;;;2.55;;
78916;SDS011;68315;48.608;11.436;2023-12-29T10:08:51;2.85;;;2.22;;
78916;SDS011;68315;48.608;11.436;2023-12-29T10:11:18;3.47;;;2.25;;
78916;SDS011;68315;48.608;11.436;2023-12-29T10:13:46;4.88;;;2.67;;
78916;SDS011;68315;48.608;11.436;2023-12-29T10:16:15;5.22;;;2.20;;
78916;SDS011;68315;48.608;11.436;2023-12-29T10:18:56;2.53;;;2.25;;
78916;SDS011;68315;48.608;11.436;2023-12-29T10:21:44;2.33;;;2.00;;
78916;SDS011;68315;48.608;11.436;2023-12-29T10:24:20;2.92;;;2.28;;
78916;SDS011;68315;48.608;11.436;2023-12-29T10:26:46;2.38;;;1.95;;
78916;SDS011;68315;48.608;11.436;2023-12-29T10:29:12;4.53;;;2.20;;
78916;SDS011;68315;48.608;11.436;2023-12-29T10:31:37;2.88;;;2.00;;
78916;SDS011;68315;48.608;11.436;2023-12-29T10:34:19;2.97;;;2.08;;
78916;SDS011;68315;48.608;11.436;2023-12-29T10:36:51;2.60;;;1.90;;
78916;SDS011;68315;48.608;11.436;2023-12-29T10:39:16;2.75;;;2.28;;
78916;SDS011;68315;48.608;11.436;2023-12-29T10:41:41;3.13;;;2.13;;
78916;SDS011;68315;48.608;11.436;2023-12-29T10:44:07;2.92;;;2.15;;
78916;SDS011;68315;48.608;11.436;2023-12-29T10:46:32;5.47;;;2.40;;
78916;SDS011;68315;48.608;11.436;2023-12-29T10:49:08;4.63;;;2.45;;
78916;SDS011;68315;48.608;11.436;2023-12-29T10:51:34;5.40;;;2.40;;
78916;SDS011;68315;48.608;11.436;2023-12-29T10:54:00;2.80;;;2.25;;
78916;SDS011;68315;48.608;11.436;2023-12-29T10:56:25;2.65;;;2.17;;
78916;SDS011;68315;48.608;11.436;2023-12-29T10:59:00;2.95;;;2.25;;
78916;SDS011;68315;48.608;11.436;2023-12-29T11:01:28;4.72;;;2.10;;
78916;SDS011;68315;48.608;11.436;2023-12-29T11:03:58;4.75;;;2.08;;
78916;SDS011;68315;48.608;11.436;2023-12-29T11:06:28;2.35;;;1.95;;
78916;SDS011;68315;48.608;11.436;2023-12-29T11:08:54;3.05;;;2.30;;
78916;SDS011;68315;48.608;11.436;2023-12-29T11:11:21;2.80;;;2.17;;
78916;SDS011;68315;48.608;11.436;2023-12-29T11:13:46;3.63;;;2.47;;
78916;SDS011;68315;48.608;11.436;2023-12-29T11:16:12;3.20;;;2.40;;
78916;SDS011;68315;48.608;11.436;2023-12-29T11:18:39;3.58;;;2.45;;
78916;SDS011;68315;48.608;11.436;2023-12-29T11:21:06;3.03;;;2.60;;
78916;SDS011;68315;48.608;11.436;2023-12-29T11:23:33;2.83;;;2.42;;
78916;SDS011;68315;48.608;11.436;2023-12-29T11:25:58;2.88;;;2.40;;
78916;SDS011;68315;48.608;11.436;2023-12-29T11:28:24;3.17;;;2.30;;
78916;SDS011;68315;48.608;11.436;2023-12-29T11:30:50;3.15;;;2.03;;
78916;SDS011;68315;48.608;11.436;2023-12-29T11:33:34;2.80;;;2.40;;
78916;SDS011;68315;48.608;11.436;2023-12-29T11:41:27;3.15;;;2.40;;
78916;SDS011;68315;48.608;11.436;2023-12-29T11:43:59;2.72;;;2.45;;
78916;SDS011;68315;48.608;11.436;2023-12-29T11:49:03;4.07;;;2.60;;
78916;SDS011;68315;48.608;11.436;2023-12-29T11:54:04;2.83;;;2.50;;
78916;SDS011;68315;48.608;11.436;2023-12-29T11:56:38;3.28;;;2.30;;
78916;SDS011;68315;48.608;11.436;2023-12-29T11:59:13;2.38;;;2.17;;
78916;SDS011;68315;48.608;11.436;2023-12-29T12:01:39;4.35;;;2.33;;
78916;SDS011;68315;48.608;11.436;2023-12-29T12:04:33;3.03;;;2.22;;
78916;SDS011;68315;48.608;11.436;2023-12-29T12:09:52;2.67;;;2.25;;
78916;SDS011;68315;48.608;11.436;2023-12-29T12:12:56;3.00;;;2.40;;
78916;SDS011;68315;48.608;11.436;2023-12-29T12:17:54;2.53;;;2.20;;
78916;SDS011;68315;48.608;11.436;2023-12-29T12:20:20;2.10;;;1.90;;
78916;SDS011;68315;48.608;11.436;2023-12-29T12:22:47;2.95;;;1.95;;
78916;SDS011;68315;48.608;11.436;2023-12-29T12:25:15;3.80;;;2.20;;
78916;SDS011;68315;48.608;11.436;2023-12-29T12:27:40;3.78;;;2.13;;
78916;SDS011;68315;48.608;11.436;2023-12-29T12:30:06;4.18;;;2.00;;
78916;SDS011;68315;48.608;11.436;2023-12-29T12:32:34;2.30;;;2.10;;
78916;SDS011;68315;48.608;11.436;2023-12-29T12:35:00;2.28;;;2.05;;
78916;SDS011;68315;48.608;11.436;2023-12-29T12:37:26;2.90;;;2.30;;
78916;SDS011;68315;48.608;11.436;2023-12-29T12:39:52;2.28;;;2.08;;
78916;SDS011;68315;48.608;11.436;2023-12-29T12:42:18;2.65;;;2.00;;
78916;SDS011;68315;48.608;11.436;2023-12-29T12:45:03;2.22;;;1.90;;
78916;SDS011;68315;48.608;11.436;2023-12-29T12:47:36;2.03;;;1.83;;
78916;SDS011;68315;48.608;11.436;2023-12-29T12:50:07;2.55;;;2.00;;
78916;SDS011;68315;48.608;11.436;2023-12-29T12:52:35;3.13;;;1.85;;
78916;SDS011;68315;48.608;11.436;2023-12-29T12:55:01;2.17;;;2.00;;
78916;SDS011;68315;48.608;11.436;2023-12-29T12:57:27;3.35;;;2.00;;
78916;SDS011;68315;48.608;11.436;2023-12-29T12:59:52;2.28;;;1.80;;
78916;SDS011;68315;48.608;11.436;2023-12-29T13:02:18;2.08;;;1.88;;
78916;SDS011;68315;48.608;11.436;2023-12-29T13:04:44;1.77;;;1.60;;
78916;SDS011;68315;48.608;11.436;2023-12-29T13:07:10;2.42;;;1.50;;
78916;SDS011;68315;48.608;11.436;2023-12-29T13:09:39;2.13;;;1.90;;
78916;SDS011;68315;48.608;11.436;2023-12-29T13:12:08;2.30;;;1.88;;
78916;SDS011;68315;48.608;11.436;2023-12-29T13:14:34;2.30;;;2.05;;
78916;SDS011;68315;48.608;11.436;2023-12-29T13:17:04;2.08;;;1.88;;
78916;SDS011;68315;48.608;11.436;2023-12-29T13:19:30;2.33;;;1.85;;
78916;SDS011;68315;48.608;11.436;2023-12-29T13:21:56;2.10;;;1.63;;
78916;SDS011;68315;48.608;11.436;2023-12-29T13:24:21;2.92;;;1.92;;
78916;SDS011;68315;48.608;11.436;2023-12-29T13:26:47;2.15;;;1.77;;
78916;SDS011;68315;48.608;11.436;2023-12-29T13:29:20;2.28;;;1.75;;
78916;SDS011;68315;48.608;11.436;2023-12-29T13:31:47;1.70;;;1.60;;
78916;SDS011;68315;48.608;11.436;2023-12-29T13:34:15;1.80;;;1.70;;
78916;SDS011;68315;48.608;11.436;2023-12-29T13:39:23;2.22;;;1.85;;
78916;SDS011;68315;48.608;11.436;2023-12-29T13:41:55;2.65;;;1.70;;
78916;SDS011;68315;48.608;11.436;2023-12-29T13:44:23;3.90;;;1.90;;
78916;SDS011;68315;48.608;11.436;2023-12-29T13:46:52;2.00;;;1.70;;
78916;SDS011;68315;48.608;11.436;2023-12-29T13:49:18;2.45;;;2.05;;
78916;SDS011;68315;48.608;11.436;2023-12-29T13:51:43;2.53;;;1.90;;
78916;SDS011;68315;48.608;11.436;2023-12-29T13:54:09;4.35;;;2.08;;
78916;SDS011;68315;48.608;11.436;2023-12-29T13:56:34;1.92;;;1.73;;
78916;SDS011;68315;48.608;11.436;2023-12-29T13:59:00;2.33;;;2.13;;
78916;SDS011;68315;48.608;11.436;2023-12-29T14:01:34;2.13;;;1.92;;
78916;SDS011;68315;48.608;11.436;2023-12-29T14:03:59;2.58;;;2.10;;
78916;SDS011;68315;48.608;11.436;2023-12-29T14:06:50;2.17;;;2.00;;
78916;SDS011;68315;48.608;11.436;2023-12-29T14:09:17;2.75;;;2.10;;
78916;SDS011;68315;48.608;11.436;2023-12-29T14:11:48;4.07;;;1.95;;
78916;SDS011;68315;48.608;11.436;2023-12-29T14:14:23;2.33;;;2.08;;
78916;SDS011;68315;48.608;11.436;2023-12-29T14:16:49;2.50;;;2.10;;
78916;SDS011;68315;48.608;11.436;2023-12-29T14:19:15;2.47;;;2.00;;
78916;SDS011;68315;48.608;11.436;2023-12-29T14:21:40;2.92;;;1.98;;
78916;SDS011;68315;48.608;11.436;2023-12-29T14:24:07;2.22;;;2.08;;
78916;SDS011;68315;48.608;11.436;2023-12-29T14:26:33;2.42;;;1.90;;
78916;SDS011;68315;48.608;11.436;2023-12-29T14:31:31;2.88;;;1.90;;
78916;SDS011;68315;48.608;11.436;2023-12-29T14:33:58;1.83;;;1.60;;
78916;SDS011;68315;48.608;11.436;2023-12-29T14:36:24;2.35;;;1.92;;
78916;SDS011;68315;48.608;11.436;2023-12-29T14:38:49;3.20;;;2.15;;
78916;SDS011;68315;48.608;11.436;2023-12-29T14:41:14;2.95;;;2.03;;
78916;SDS011;68315;48.608;11.436;2023-12-29T14:43:39;2.70;;;2.03;;
78916;SDS011;68315;48.608;11.436;2023-12-29T14:46:05;2.10;;;1.90;;
78916;SDS011;68315;48.608;11.436;2023-12-29T14:48:30;3.03;;;2.10;;
78916;SDS011;68315;48.608;11.436;2023-12-29T14:50:55;3.03;;;2.47;;
78916;SDS011;68315;48.608;11.436;2023-12-29T14:53:22;3.00;;;2.17;;
78916;SDS011;68315;48.608;11.436;2023-12-29T14:55:47;2.67;;;1.80;;
78916;SDS011;68315;48.608;11.436;2023-12-29T14:58:12;1.85;;;1.73;;